PARDEE (PAR)

Elevation: 568' · MOKELUMNE R basin · Operator: East Bay Municipal Utility District

Provisional data, subject to change.
Query executed Monday at 4:25:02   clock

Select a sensor type for a plot of data.
Note: Reservoir Flows are daily averages.

Earlier

Date RES ELE    STORAGE    RES CHG    OUTFLOW    INFLOW    PPT INC   
 FEET   AF   AF   CFS   CFS   INCHES  
11/23/2014 553.15 167358 682 212 485 0.01
11/24/2014 553.35 167754 396 206 447 0.00
11/25/2014 553.56 168174 420 208 391 0.00
11/26/2014 553.84 168738 564 222 386 --
11/27/2014 554.11 169267 529 228 437 0.00
11/28/2014 554.37 169802 535 219 441 0.00
11/29/2014 554.63 170308 506 204 422 0.14
11/30/2014 554.86 170783 475 211 412 0.35
12/01/2014 555.20 171490 677 226 603 0.00
12/02/2014 555.49 172060 604 225 466 0.72
12/03/2014 555.77 172610 563 210 458 0.56
12/04/2014 556.17 173450 830 233 665 0.11
12/05/2014 556.41 173940 490 245 517 0.17
12/06/2014 556.68 174490 550 229 438 0.01
12/07/2014 556.94 175035 545 217 413 0.00
12/08/2014 556.71 174556 -479 713 630 0.00
12/09/2014 556.54 174207 -349 637 249 0.00
12/10/2014 556.29 173690 -517 710 353 0.00
12/11/2014 556.47 174068 378 686 297 3.37
12/12/2014 556.92 174994 926 679 876 0.84
12/13/2014 556.87 174884 -110 698 601 0.01
12/14/2014 557.22 175605 721 150 161 0.00
12/15/2014 556.92 174994 -611 791 651 0.37
12/16/2014 556.37 173850 -1144 1106 734 0.69
12/17/2014 555.77 172639 -1211 1110 718 0.03
12/18/2014 555.17 171415 -1224 1114 682 0.00
12/19/2014 554.63 170308 -1107 1120 676 --
12/20/2014 554.25 169544 -764 1096 756 --
12/21/2014 554.65 170352 808 243 200 --
12/22/2014 -- -- -- -- -- --

Later | Latest

Warning! This data is preliminary and subject to revision.

Show PAR Map | Plot PAR Data | 1 Month PAR Data | Real-Time PAR Data | PAR Info